sensor_id;sensor_type;location;lat;lon;timestamp;pressure;altitude;pressure_sealevel;temperature;humidity
71764;BME280;59602;52.142;5.408;2023-04-05T00:06:40;102658.78;;;4.31;71.81
71764;BME280;59602;52.142;5.408;2023-04-05T00:10:19;102663.16;;;4.27;71.61
71764;BME280;59602;52.142;5.408;2023-04-05T00:13:02;102671.53;;;4.26;71.95
71764;BME280;59602;52.142;5.408;2023-04-05T00:15:54;102674.28;;;4.21;72.16
71764;BME280;59602;52.142;5.408;2023-04-05T00:19:19;102658.72;;;4.18;71.79
71764;BME280;59602;52.142;5.408;2023-04-05T00:22:15;102660.59;;;4.17;71.59
71764;BME280;59602;52.142;5.408;2023-04-05T00:25:22;102653.13;;;4.14;72.30
71764;BME280;59602;52.142;5.408;2023-04-05T00:28:09;102655.88;;;4.09;72.75
71764;BME280;59602;52.142;5.408;2023-04-05T00:30:51;102660.25;;;4.05;72.85
71764;BME280;59602;52.142;5.408;2023-04-05T00:33:29;102666.19;;;4.02;72.94
71764;BME280;59602;52.142;5.408;2023-04-05T00:36:09;102659.22;;;4.01;72.73
71764;BME280;59602;52.142;5.408;2023-04-05T00:38:41;102653.59;;;3.97;72.81
71764;BME280;59602;52.142;5.408;2023-04-05T00:41:20;102646.38;;;3.92;72.60
71764;BME280;59602;52.142;5.408;2023-04-05T00:44:01;102641.88;;;3.88;72.94
71764;BME280;59602;52.142;5.408;2023-04-05T00:46:40;102647.84;;;3.85;73.80
71764;BME280;59602;52.142;5.408;2023-04-05T00:49:27;102644.13;;;3.81;73.88
71764;BME280;59602;52.142;5.408;2023-04-05T00:52:10;102647.09;;;3.79;73.75
71764;BME280;59602;52.142;5.408;2023-04-05T00:54:43;102641.72;;;3.79;74.76
71764;BME280;59602;52.142;5.408;2023-04-05T00:57:12;102646.56;;;3.77;74.20
71764;BME280;59602;52.142;5.408;2023-04-05T00:59:58;102637.78;;;3.71;74.92
71764;BME280;59602;52.142;5.408;2023-04-05T01:02:47;102637.84;;;3.66;74.39
71764;BME280;59602;52.142;5.408;2023-04-05T01:08:51;102625.03;;;3.58;74.89
71764;BME280;59602;52.142;5.408;2023-04-05T01:11:47;102628.59;;;3.53;75.47
71764;BME280;59602;52.142;5.408;2023-04-05T01:14:45;102629.72;;;3.47;74.88
71764;BME280;59602;52.142;5.408;2023-04-05T01:17:35;102624.94;;;3.44;74.91
71764;BME280;59602;52.142;5.408;2023-04-05T01:20:19;102626.59;;;3.40;75.56
71764;BME280;59602;52.142;5.408;2023-04-05T01:23:28;102620.97;;;3.37;75.49
71764;BME280;59602;52.142;5.408;2023-04-05T01:35:45;102616.75;;;3.30;76.11
71764;BME280;59602;52.142;5.408;2023-04-05T01:38:23;102608.44;;;3.27;75.72
71764;BME280;59602;52.142;5.408;2023-04-05T01:40:58;102605.50;;;3.23;76.24
71764;BME280;59602;52.142;5.408;2023-04-05T01:43:30;102608.78;;;3.20;76.51
71764;BME280;59602;52.142;5.408;2023-04-05T01:46:16;102610.44;;;3.16;76.65
71764;BME280;59602;52.142;5.408;2023-04-05T01:48:44;102611.81;;;3.14;76.53
71764;BME280;59602;52.142;5.408;2023-04-05T01:51:16;102611.56;;;3.10;76.56
71764;BME280;59602;52.142;5.408;2023-04-05T01:54:19;102607.63;;;3.02;76.10
71764;BME280;59602;52.142;5.408;2023-04-05T01:56:50;102605.00;;;2.97;75.90
71764;BME280;59602;52.142;5.408;2023-04-05T01:59:31;102599.38;;;2.94;76.25
71764;BME280;59602;52.142;5.408;2023-04-05T02:02:15;102592.09;;;2.94;76.75
71764;BME280;59602;52.142;5.408;2023-04-05T02:04:46;102591.31;;;2.94;76.88
71764;BME280;59602;52.142;5.408;2023-04-05T02:07:30;102590.00;;;2.91;76.77
71764;BME280;59602;52.142;5.408;2023-04-05T02:10:16;102584.38;;;2.87;76.90
71764;BME280;59602;52.142;5.408;2023-04-05T02:12:58;102595.91;;;2.88;77.09
71764;BME280;59602;52.142;5.408;2023-04-05T02:15:47;102588.72;;;2.83;77.14
71764;BME280;59602;52.142;5.408;2023-04-05T02:18:24;102588.50;;;2.80;76.69
71764;BME280;59602;52.142;5.408;2023-04-05T02:21:03;102584.25;;;2.74;76.72
71764;BME280;59602;52.142;5.408;2023-04-05T02:23:38;102578.94;;;2.68;77.21
71764;BME280;59602;52.142;5.408;2023-04-05T02:26:21;102578.41;;;2.66;76.68
71764;BME280;59602;52.142;5.408;2023-04-05T02:28:50;102581.09;;;2.66;77.25
71764;BME280;59602;52.142;5.408;2023-04-05T02:31:42;102574.41;;;2.64;76.95
71764;BME280;59602;52.142;5.408;2023-04-05T02:34:11;102576.03;;;2.60;76.67
71764;BME280;59602;52.142;5.408;2023-04-05T02:37:03;102569.38;;;2.52;76.43
71764;BME280;59602;52.142;5.408;2023-04-05T02:39:34;102575.84;;;2.51;76.92
71764;BME280;59602;52.142;5.408;2023-04-05T02:42:03;102571.06;;;2.48;76.63
71764;BME280;59602;52.142;5.408;2023-04-05T02:44:35;102577.22;;;2.48;76.93
71764;BME280;59602;52.142;5.408;2023-04-05T02:47:06;102564.06;;;2.47;77.22
71764;BME280;59602;52.142;5.408;2023-04-05T02:49:32;102573.50;;;2.44;77.04
71764;BME280;59602;52.142;5.408;2023-04-05T02:52:04;102568.38;;;2.43;77.39
71764;BME280;59602;52.142;5.408;2023-04-05T02:54:32;102563.31;;;2.41;77.19
71764;BME280;59602;52.142;5.408;2023-04-05T02:57:01;102563.06;;;2.38;77.45
71764;BME280;59602;52.142;5.408;2023-04-05T02:59:28;102561.22;;;2.33;77.18
71764;BME280;59602;52.142;5.408;2023-04-05T03:01:59;102555.34;;;2.31;76.94
71764;BME280;59602;52.142;5.408;2023-04-05T03:04:42;102554.03;;;2.28;76.98
71764;BME280;59602;52.142;5.408;2023-04-05T03:07:11;102554.56;;;2.25;77.19
71764;BME280;59602;52.142;5.408;2023-04-05T03:09:44;102550.56;;;2.23;76.90
71764;BME280;59602;52.142;5.408;2023-04-05T03:12:14;102551.66;;;2.22;77.19
71764;BME280;59602;52.142;5.408;2023-04-05T03:14:42;102541.72;;;2.22;76.88
71764;BME280;59602;52.142;5.408;2023-04-05T03:17:11;102543.59;;;2.22;77.21
71764;BME280;59602;52.142;5.408;2023-04-05T03:19:39;102539.59;;;2.19;76.55
71764;BME280;59602;52.142;5.408;2023-04-05T03:22:05;102537.75;;;2.15;76.88
71764;BME280;59602;52.142;5.408;2023-04-05T03:24:33;102542.06;;;2.11;77.03
71764;BME280;59602;52.142;5.408;2023-04-05T03:27:02;102537.25;;;2.07;76.78
71764;BME280;59602;52.142;5.408;2023-04-05T03:29:35;102541.28;;;2.10;77.09
71764;BME280;59602;52.142;5.408;2023-04-05T03:32:04;102536.47;;;2.07;76.94
71764;BME280;59602;52.142;5.408;2023-04-05T03:34:31;102540.50;;;2.04;76.89
71764;BME280;59602;52.142;5.408;2023-04-05T03:36:58;102543.19;;;2.04;76.77
71764;BME280;59602;52.142;5.408;2023-04-05T03:39:26;102533.81;;;2.02;77.13
71764;BME280;59602;52.142;5.408;2023-04-05T03:41:56;102539.75;;;1.99;77.17
71764;BME280;59602;52.142;5.408;2023-04-05T03:44:25;102539.75;;;1.99;77.18
71764;BME280;59602;52.142;5.408;2023-04-05T03:46:51;102537.34;;;1.97;77.68
71764;BME280;59602;52.142;5.408;2023-04-05T03:49:18;102541.09;;;1.96;77.30
71764;BME280;59602;52.142;5.408;2023-04-05T03:51:45;102539.75;;;1.94;77.37
71764;BME280;59602;52.142;5.408;2023-04-05T03:54:12;102536.03;;;1.90;77.87
71764;BME280;59602;52.142;5.408;2023-04-05T03:56:38;102538.19;;;1.93;77.79
71764;BME280;59602;52.142;5.408;2023-04-05T03:59:07;102542.75;;;1.92;77.68
71764;BME280;59602;52.142;5.408;2023-04-05T04:01:34;102539.00;;;1.88;78.40
71764;BME280;59602;52.142;5.408;2023-04-05T04:04:02;102540.38;;;1.85;78.14
71764;BME280;59602;52.142;5.408;2023-04-05T04:06:30;102530.13;;;1.87;77.94
71764;BME280;59602;52.142;5.408;2023-04-05T04:08:57;102528.03;;;1.84;77.92
71764;BME280;59602;52.142;5.408;2023-04-05T04:11:25;102532.59;;;1.84;78.18
71764;BME280;59602;52.142;5.408;2023-04-05T04:13:52;102537.16;;;1.83;78.15
71764;BME280;59602;52.142;5.408;2023-04-05T04:16:20;102532.59;;;1.84;78.42
71764;BME280;59602;52.142;5.408;2023-04-05T04:18:47;102530.97;;;1.83;78.75
71764;BME280;59602;52.142;5.408;2023-04-05T04:21:13;102523.75;;;1.83;78.45
71764;BME280;59602;52.142;5.408;2023-04-05T04:23:42;102525.91;;;1.81;78.39
71764;BME280;59602;52.142;5.408;2023-04-05T04:26:12;102531.81;;;1.78;78.74
71764;BME280;59602;52.142;5.408;2023-04-05T04:28:39;102525.91;;;1.76;78.67
71764;BME280;59602;52.142;5.408;2023-04-05T04:31:12;102532.63;;;1.74;78.54
71764;BME280;59602;52.142;5.408;2023-04-05T04:33:41;102533.22;;;1.71;78.61
71764;BME280;59602;52.142;5.408;2023-04-05T04:36:09;102528.41;;;1.68;78.53
71764;BME280;59602;52.142;5.408;2023-04-05T04:38:40;102528.69;;;1.66;78.53
71764;BME280;59602;52.142;5.408;2023-04-05T04:41:10;102539.41;;;1.66;78.32
71764;BME280;59602;52.142;5.408;2023-04-05T04:43:37;102526.00;;;1.66;78.12
71764;BME280;59602;52.142;5.408;2023-04-05T04:46:08;102528.16;;;1.64;78.26
71764;BME280;59602;52.142;5.408;2023-04-05T04:48:42;102522.00;;;1.63;78.59
71764;BME280;59602;52.142;5.408;2023-04-05T04:51:12;102526.53;;;1.63;78.59
71764;BME280;59602;52.142;5.408;2023-04-05T04:53:39;102531.41;;;1.61;78.51
71764;BME280;59602;52.142;5.408;2023-04-05T04:56:07;102531.41;;;1.61;78.15
71764;BME280;59602;52.142;5.408;2023-04-05T04:58:34;102530.56;;;1.60;78.15
71764;BME280;59602;52.142;5.408;2023-04-05T05:01:06;102531.66;;;1.59;78.66
71764;BME280;59602;52.142;5.408;2023-04-05T05:03:36;102531.66;;;1.59;78.34
71764;BME280;59602;52.142;5.408;2023-04-05T05:06:04;102524.41;;;1.60;78.42
71764;BME280;59602;52.142;5.408;2023-04-05T05:08:31;102524.16;;;1.61;78.08
71764;BME280;59602;52.142;5.408;2023-04-05T05:10:57;102526.03;;;1.61;78.40
71764;BME280;59602;52.142;5.408;2023-04-05T05:13:24;102524.69;;;1.58;78.34
71764;BME280;59602;52.142;5.408;2023-04-05T05:15:51;102519.63;;;1.57;78.42
71764;BME280;59602;52.142;5.408;2023-04-05T05:18:20;102524.41;;;1.60;78.27
71764;BME280;59602;52.142;5.408;2023-04-05T05:20:49;102521.16;;;1.63;78.52
71764;BME280;59602;52.142;5.408;2023-04-05T05:23:18;102518.47;;;1.63;78.62
71764;BME280;59602;52.142;5.408;2023-04-05T05:25:46;102522.22;;;1.67;78.89
71764;BME280;59602;52.142;5.408;2023-04-05T05:28:13;102515.00;;;1.62;78.75
71764;BME280;59602;52.142;5.408;2023-04-05T05:30:43;102514.22;;;1.62;78.81
71764;BME280;59602;52.142;5.408;2023-04-05T05:33:11;102519.56;;;1.62;78.88
71764;BME280;59602;52.142;5.408;2023-04-05T05:35:37;102515.81;;;1.63;78.83
71764;BME280;59602;52.142;5.408;2023-04-05T05:38:04;102524.91;;;1.67;78.88
71764;BME280;59602;52.142;5.408;2023-04-05T05:40:35;102519.28;;;1.69;79.13
71764;BME280;59602;52.142;5.408;2023-04-05T05:43:02;102520.59;;;1.71;79.28
71764;BME280;59602;52.142;5.408;2023-04-05T05:45:29;102518.44;;;1.73;79.09
71764;BME280;59602;52.142;5.408;2023-04-05T05:47:57;102523.53;;;1.75;79.46
71764;BME280;59602;52.142;5.408;2023-04-05T05:50:33;102524.06;;;1.77;79.27
71764;BME280;59602;52.142;5.408;2023-04-05T05:53:00;102529.66;;;1.80;79.48
71764;BME280;59602;52.142;5.408;2023-04-05T05:55:28;102525.34;;;1.84;79.60
71764;BME280;59602;52.142;5.408;2023-04-05T05:58:09;102529.06;;;1.89;80.03
71764;BME280;59602;52.142;5.408;2023-04-05T06:00:37;102525.28;;;1.95;79.90
71764;BME280;59602;52.142;5.408;2023-04-05T06:03:05;102518.03;;;1.95;79.45
71764;BME280;59602;52.142;5.408;2023-04-05T06:05:41;102522.28;;;2.01;79.92
71764;BME280;59602;52.142;5.408;2023-04-05T06:08:18;102521.69;;;2.10;79.99
71764;BME280;59602;52.142;5.408;2023-04-05T06:10:52;102518.97;;;2.15;79.91
71764;BME280;59602;52.142;5.408;2023-04-05T06:13:20;102515.72;;;2.18;79.86
71764;BME280;59602;52.142;5.408;2023-04-05T06:15:48;102517.28;;;2.24;79.29
71764;BME280;59602;52.142;5.408;2023-04-05T06:18:16;102521.81;;;2.28;79.40
71764;BME280;59602;52.142;5.408;2023-04-05T06:20:45;102522.56;;;2.34;79.48
71764;BME280;59602;52.142;5.408;2023-04-05T06:23:12;102520.38;;;2.41;79.89
71764;BME280;59602;52.142;5.408;2023-04-05T06:25:46;102525.41;;;2.48;79.48
71764;BME280;59602;52.142;5.408;2023-04-05T06:28:14;102528.03;;;2.53;79.22
71764;BME280;59602;52.142;5.408;2023-04-05T06:30:42;102531.19;;;2.60;78.98
71764;BME280;59602;52.142;5.408;2023-04-05T06:33:15;102528.19;;;2.67;78.43
71764;BME280;59602;52.142;5.408;2023-04-05T06:35:43;102528.38;;;2.76;78.16
71764;BME280;59602;52.142;5.408;2023-04-05T06:38:10;102525.88;;;2.84;78.23
71764;BME280;59602;52.142;5.408;2023-04-05T06:40:37;102530.56;;;2.98;77.53
71764;BME280;59602;52.142;5.408;2023-04-05T06:43:04;102521.06;;;3.05;78.02
71764;BME280;59602;52.142;5.408;2023-04-05T06:45:31;102527.91;;;3.17;77.72
71764;BME280;59602;52.142;5.408;2023-04-05T06:47:58;102522.34;;;3.32;77.15
71764;BME280;59602;52.142;5.408;2023-04-05T06:50:25;102526.25;;;3.45;76.88
71764;BME280;59602;52.142;5.408;2023-04-05T06:52:51;102519.63;;;3.56;77.13
71764;BME280;59602;52.142;5.408;2023-04-05T06:55:18;102525.09;;;3.70;75.31
71764;BME280;59602;52.142;5.408;2023-04-05T06:57:45;102534.03;;;3.84;75.09
71764;BME280;59602;52.142;5.408;2023-04-05T07:00:12;102525.25;;;3.98;73.63
71764;BME280;59602;52.142;5.408;2023-04-05T07:02:39;102527.25;;;4.06;72.32
71764;BME280;59602;52.142;5.408;2023-04-05T07:05:06;102522.28;;;4.13;71.80
71764;BME280;59602;52.142;5.408;2023-04-05T07:07:40;102526.50;;;4.19;70.94
71764;BME280;59602;52.142;5.408;2023-04-05T07:10:09;102526.53;;;4.33;71.36
71764;BME280;59602;52.142;5.408;2023-04-05T07:12:38;102522.00;;;4.47;70.62
71764;BME280;59602;52.142;5.408;2023-04-05T07:15:05;102517.75;;;4.60;70.31
71764;BME280;59602;52.142;5.408;2023-04-05T07:17:32;102519.16;;;4.71;70.20
71764;BME280;59602;52.142;5.408;2023-04-05T07:19:58;102520.25;;;4.84;70.17
71764;BME280;59602;52.142;5.408;2023-04-05T07:22:25;102524.19;;;4.92;69.12
71764;BME280;59602;52.142;5.408;2023-04-05T07:24:58;102523.47;;;5.00;68.86
71764;BME280;59602;52.142;5.408;2023-04-05T07:27:54;102526.28;;;5.23;68.71
71764;BME280;59602;52.142;5.408;2023-04-05T07:30:47;102525.06;;;5.43;68.21
71764;BME280;59602;52.142;5.408;2023-04-05T07:33:54;102515.53;;;5.59;66.92
71764;BME280;59602;52.142;5.408;2023-04-05T07:36:42;102514.97;;;5.71;66.30
71764;BME280;59602;52.142;5.408;2023-04-05T07:39:27;102509.88;;;5.83;65.89
71764;BME280;59602;52.142;5.408;2023-04-05T07:42:13;102513.44;;;5.92;65.03
71764;BME280;59602;52.142;5.408;2023-04-05T07:45:25;102514.81;;;6.03;64.89
71764;BME280;59602;52.142;5.408;2023-04-05T07:48:30;102516.16;;;6.15;65.14
71764;BME280;59602;52.142;5.408;2023-04-05T07:51:28;102521.63;;;6.23;64.15
71764;BME280;59602;52.142;5.408;2023-04-05T07:54:39;102510.44;;;6.39;63.97
71764;BME280;59602;52.142;5.408;2023-04-05T08:00:45;102501.41;;;6.43;62.93
71764;BME280;59602;52.142;5.408;2023-04-05T08:04:05;102505.44;;;6.55;62.42
71764;BME280;59602;52.142;5.408;2023-04-05T08:07:05;102504.66;;;6.63;62.50
71764;BME280;59602;52.142;5.408;2023-04-05T08:09:54;102507.09;;;6.73;62.27
71764;BME280;59602;52.142;5.408;2023-04-05T08:12:46;102503.16;;;6.79;62.24
71764;BME280;59602;52.142;5.408;2023-04-05T08:15:41;102509.53;;;6.83;61.66
71764;BME280;59602;52.142;5.408;2023-04-05T08:18:48;102504.78;;;6.89;62.04
71764;BME280;59602;52.142;5.408;2023-04-05T08:21:51;102508.44;;;6.93;62.09
71764;BME280;59602;52.142;5.408;2023-04-05T08:28:02;102510.06;;;7.03;60.82
71764;BME280;59602;52.142;5.408;2023-04-05T08:30:52;102509.94;;;7.08;60.33
71764;BME280;59602;52.142;5.408;2023-04-05T08:33:57;102502.78;;;7.12;61.06
71764;BME280;59602;52.142;5.408;2023-04-05T08:36:30;102506.44;;;7.16;61.05
71764;BME280;59602;52.142;5.408;2023-04-05T08:38:57;102506.13;;;7.18;60.58
71764;BME280;59602;52.142;5.408;2023-04-05T08:41:25;102498.19;;;7.21;58.97
71764;BME280;59602;52.142;5.408;2023-04-05T08:43:59;102495.97;;;7.23;58.09
71764;BME280;59602;52.142;5.408;2023-04-05T08:46:29;102495.66;;;7.25;57.73
71764;BME280;59602;52.142;5.408;2023-04-05T08:48:58;102492.47;;;7.32;58.49
71764;BME280;59602;52.142;5.408;2023-04-05T08:51:26;102496.81;;;7.41;58.27
71764;BME280;59602;52.142;5.408;2023-04-05T08:53:54;102492.19;;;7.51;57.96
71764;BME280;59602;52.142;5.408;2023-04-05T08:56:25;102499.50;;;7.59;57.35
71764;BME280;59602;52.142;5.408;2023-04-05T09:01:30;102496.03;;;7.67;56.94
71764;BME280;59602;52.142;5.408;2023-04-05T09:04:05;102489.66;;;7.72;55.09
71764;BME280;59602;52.142;5.408;2023-04-05T09:06:40;102487.91;;;7.76;54.73
71764;BME280;59602;52.142;5.408;2023-04-05T09:14:18;102482.13;;;7.95;55.26
71764;BME280;59602;52.142;5.408;2023-04-05T09:17:48;102491.53;;;8.06;55.59
71764;BME280;59602;52.142;5.408;2023-04-05T09:32:25;102483.34;;;8.32;52.49
71764;BME280;59602;52.142;5.408;2023-04-05T09:39:13;102483.81;;;8.51;52.15
71764;BME280;59602;52.142;5.408;2023-04-05T09:50:41;102482.09;;;8.77;52.02
71764;BME280;59602;52.142;5.408;2023-04-05T09:57:22;102479.00;;;8.96;53.19
71764;BME280;59602;52.142;5.408;2023-04-05T10:03:20;102477.03;;;9.05;51.11
71764;BME280;59602;52.142;5.408;2023-04-05T10:06:07;102466.63;;;9.07;49.84
71764;BME280;59602;52.142;5.408;2023-04-05T10:08:37;102459.09;;;9.12;50.33
71764;BME280;59602;52.142;5.408;2023-04-05T10:11:04;102464.00;;;9.19;49.75
71764;BME280;59602;52.142;5.408;2023-04-05T10:13:35;102465.41;;;9.25;49.86
71764;BME280;59602;52.142;5.408;2023-04-05T10:16:05;102458.78;;;9.35;48.12
71764;BME280;59602;52.142;5.408;2023-04-05T10:18:41;102456.06;;;9.35;46.93
71764;BME280;59602;52.142;5.408;2023-04-05T10:21:11;102457.47;;;9.41;48.08
71764;BME280;59602;52.142;5.408;2023-04-05T10:23:43;102458.63;;;9.52;47.12
71764;BME280;59602;52.142;5.408;2023-04-05T10:26:22;102451.91;;;9.59;47.01
71764;BME280;59602;52.142;5.408;2023-04-05T10:28:58;102447.19;;;9.68;47.70
71764;BME280;59602;52.142;5.408;2023-04-05T10:31:40;102451.94;;;9.71;46.95
71764;BME280;59602;52.142;5.408;2023-04-05T10:34:19;102448.22;;;9.75;46.82
71764;BME280;59602;52.142;5.408;2023-04-05T10:36:58;102447.25;;;9.80;46.37
71764;BME280;59602;52.142;5.408;2023-04-05T10:39:29;102441.81;;;9.80;45.65
71764;BME280;59602;52.142;5.408;2023-04-05T10:42:00;102437.25;;;9.84;45.45
71764;BME280;59602;52.142;5.408;2023-04-05T10:45:01;102431.75;;;9.93;45.91
71764;BME280;59602;52.142;5.408;2023-04-05T10:47:57;102442.66;;;10.05;45.04
71764;BME280;59602;52.142;5.408;2023-04-05T10:50:34;102424.22;;;10.11;44.92
71764;BME280;59602;52.142;5.408;2023-04-05T10:53:03;102423.88;;;10.12;45.43
71764;BME280;59602;52.142;5.408;2023-04-05T11:50:39;102369.03;;;11.37;49.55
71764;BME280;59602;52.142;5.408;2023-04-05T11:53:11;102363.88;;;11.48;43.93
71764;BME280;59602;52.142;5.408;2023-04-05T11:55:39;102360.25;;;11.43;43.58
71764;BME280;59602;52.142;5.408;2023-04-05T11:58:21;102356.84;;;11.47;43.23
71764;BME280;59602;52.142;5.408;2023-04-05T12:00:57;102354.25;;;11.38;42.98
71764;BME280;59602;52.142;5.408;2023-04-05T12:03:26;102349.09;;;11.49;42.19
71764;BME280;59602;52.142;5.408;2023-04-05T12:05:56;102350.63;;;11.62;41.85
71764;BME280;59602;52.142;5.408;2023-04-05T12:08:44;102348.16;;;11.57;41.27
71764;BME280;59602;52.142;5.408;2023-04-05T12:11:25;102348.63;;;11.59;41.67
71764;BME280;59602;52.142;5.408;2023-04-05T12:13:53;102343.34;;;11.66;41.34
71764;BME280;59602;52.142;5.408;2023-04-05T12:16:21;102346.06;;;11.66;40.64
71764;BME280;59602;52.142;5.408;2023-04-05T12:19:06;102343.53;;;11.73;41.62
71764;BME280;59602;52.142;5.408;2023-04-05T12:21:32;102339.91;;;11.69;40.31
71764;BME280;59602;52.142;5.408;2023-04-05T12:23:59;102343.19;;;11.75;40.31
71764;BME280;59602;52.142;5.408;2023-04-05T12:26:26;102335.09;;;11.78;39.95
71764;BME280;59602;52.142;5.408;2023-04-05T12:28:57;102332.00;;;11.80;39.32
71764;BME280;59602;52.142;5.408;2023-04-05T12:34:01;102332.88;;;11.68;39.52
71764;BME280;59602;52.142;5.408;2023-04-05T12:36:37;102338.06;;;11.73;39.47
71764;BME280;59602;52.142;5.408;2023-04-05T12:43:01;102320.66;;;11.78;39.68
71764;BME280;59602;52.142;5.408;2023-04-05T12:45:54;102324.00;;;11.87;39.32
71764;BME280;59602;52.142;5.408;2023-04-05T12:48:37;102320.78;;;11.97;39.19
71764;BME280;59602;52.142;5.408;2023-04-05T12:55:07;102312.00;;;12.04;39.27
71764;BME280;59602;52.142;5.408;2023-04-05T12:57:59;102301.78;;;12.01;39.08
71764;BME280;59602;52.142;5.408;2023-04-05T13:00:52;102303.09;;;12.07;39.28
71764;BME280;59602;52.142;5.408;2023-04-05T13:03:19;102300.47;;;12.11;38.60
71764;BME280;59602;52.142;5.408;2023-04-05T13:05:47;102293.81;;;12.08;37.45
71764;BME280;59602;52.142;5.408;2023-04-05T13:08:21;102296.53;;;12.08;37.12
71764;BME280;59602;52.142;5.408;2023-04-05T13:10:53;102286.75;;;12.07;37.39
71764;BME280;59602;52.142;5.408;2023-04-05T13:13:36;102275.94;;;12.11;37.71
71764;BME280;59602;52.142;5.408;2023-04-05T13:16:03;102278.72;;;12.14;37.58
71764;BME280;59602;52.142;5.408;2023-04-05T13:18:56;102277.84;;;12.26;38.99
71764;BME280;59602;52.142;5.408;2023-04-05T13:21:23;102279.22;;;12.36;39.38
71764;BME280;59602;52.142;5.408;2023-04-05T13:23:50;102276.22;;;12.41;38.66
71764;BME280;59602;52.142;5.408;2023-04-05T13:26:28;102269.97;;;12.40;37.04
71764;BME280;59602;52.142;5.408;2023-04-05T13:29:09;102274.94;;;12.35;37.96
71764;BME280;59602;52.142;5.408;2023-04-05T13:31:38;102261.06;;;12.43;37.43
71764;BME280;59602;52.142;5.408;2023-04-05T13:34:12;102261.88;;;12.44;37.59
71764;BME280;59602;52.142;5.408;2023-04-05T13:36:56;102269.69;;;12.45;38.62
71764;BME280;59602;52.142;5.408;2023-04-05T13:39:23;102261.25;;;12.51;37.02
71764;BME280;59602;52.142;5.408;2023-04-05T15:19:53;102163.81;;;9.88;99.17
71764;BME280;59602;52.142;5.408;2023-04-05T15:22:19;102167.88;;;9.82;97.04
71764;BME280;59602;52.142;5.408;2023-04-05T15:24:48;102160.66;;;9.74;94.39
71764;BME280;59602;52.142;5.408;2023-04-05T15:27:15;102159.88;;;9.73;91.32
71764;BME280;59602;52.142;5.408;2023-04-05T15:29:41;102152.59;;;9.77;92.88
71764;BME280;59602;52.142;5.408;2023-04-05T15:32:08;102156.91;;;9.79;91.82
71764;BME280;59602;52.142;5.408;2023-04-05T15:34:36;102144.44;;;9.77;92.45
71764;BME280;59602;52.142;5.408;2023-04-05T15:37:02;102141.72;;;9.77;91.75
71764;BME280;59602;52.142;5.408;2023-04-05T15:39:29;102146.06;;;9.79;87.51
71764;BME280;59602;52.142;5.408;2023-04-05T15:41:55;102144.25;;;9.70;86.95
71764;BME280;59602;52.142;5.408;2023-04-05T15:44:23;102147.53;;;9.76;88.08
71764;BME280;59602;52.142;5.408;2023-04-05T15:46:58;102139.59;;;9.83;90.57
71764;BME280;59602;52.142;5.408;2023-04-05T15:49:25;102128.94;;;9.90;89.29
71764;BME280;59602;52.142;5.408;2023-04-05T15:51:53;102135.28;;;9.94;84.55
71764;BME280;59602;52.142;5.408;2023-04-05T15:54:20;102139.66;;;9.99;86.22
71764;BME280;59602;52.142;5.408;2023-04-05T15:56:46;102134.00;;;10.04;86.85
71764;BME280;59602;52.142;5.408;2023-04-05T15:59:13;102129.72;;;10.03;84.59
71764;BME280;59602;52.142;5.408;2023-04-05T16:01:40;102136.63;;;10.01;84.59
71764;BME280;59602;52.142;5.408;2023-04-05T16:04:06;102136.16;;;9.98;85.31
71764;BME280;59602;52.142;5.408;2023-04-05T16:06:35;102131.97;;;10.01;83.12
71764;BME280;59602;52.142;5.408;2023-04-05T16:09:02;102130.75;;;9.98;81.87
71764;BME280;59602;52.142;5.408;2023-04-05T16:11:29;102128.34;;;9.97;84.51
71764;BME280;59602;52.142;5.408;2023-04-05T16:13:58;102135.81;;;10.00;85.36
71764;BME280;59602;52.142;5.408;2023-04-05T16:16:26;102122.00;;;10.05;84.60
71764;BME280;59602;52.142;5.408;2023-04-05T16:19:07;102123.56;;;10.06;85.46
71764;BME280;59602;52.142;5.408;2023-04-05T16:21:34;102116.44;;;10.02;84.39
71764;BME280;59602;52.142;5.408;2023-04-05T16:24:01;102120.66;;;9.99;84.27
71764;BME280;59602;52.142;5.408;2023-04-05T16:26:29;102119.41;;;9.96;84.84
71764;BME280;59602;52.142;5.408;2023-04-05T16:28:57;102120.44;;;9.92;86.01
71764;BME280;59602;52.142;5.408;2023-04-05T16:31:24;102107.97;;;9.91;85.86
71764;BME280;59602;52.142;5.408;2023-04-05T16:33:51;102114.66;;;9.93;84.33
71764;BME280;59602;52.142;5.408;2023-04-05T16:36:19;102125.19;;;9.95;84.13
71764;BME280;59602;52.142;5.408;2023-04-05T16:38:46;102116.25;;;9.94;84.62
71764;BME280;59602;52.142;5.408;2023-04-05T16:41:13;102114.44;;;9.98;86.88
71764;BME280;59602;52.142;5.408;2023-04-05T16:43:39;102108.56;;;9.96;83.87
71764;BME280;59602;52.142;5.408;2023-04-05T16:46:07;102110.81;;;9.94;84.86
71764;BME280;59602;52.142;5.408;2023-04-05T16:48:34;102111.59;;;9.95;83.27
71764;BME280;59602;52.142;5.408;2023-04-05T16:51:01;102123.63;;;9.94;83.71
71764;BME280;59602;52.142;5.408;2023-04-05T16:53:30;102115.47;;;9.94;82.24
71764;BME280;59602;52.142;5.408;2023-04-05T16:55:57;102118.97;;;9.94;83.24
71764;BME280;59602;52.142;5.408;2023-04-05T16:58:24;102106.16;;;9.95;82.65
71764;BME280;59602;52.142;5.408;2023-04-05T17:00:51;102104.22;;;9.95;81.48
71764;BME280;59602;52.142;5.408;2023-04-05T17:03:24;102106.72;;;10.01;82.67
71764;BME280;59602;52.142;5.408;2023-04-05T19:42:24;102134.94;;;7.12;70.65
71764;BME280;59602;52.142;5.408;2023-04-05T21:39:38;102057.88;;;5.14;74.81
71764;BME280;59602;52.142;5.408;2023-04-05T22:32:44;102044.34;;;4.43;77.48
71764;BME280;59602;52.142;5.408;2023-04-05T22:36:06;102047.06;;;4.43;77.93
71764;BME280;59602;52.142;5.408;2023-04-05T22:39:17;102047.69;;;4.40;77.65
71764;BME280;59602;52.142;5.408;2023-04-05T22:42:26;102050.19;;;4.36;77.78
71764;BME280;59602;52.142;5.408;2023-04-05T22:45:17;102039.53;;;4.31;77.62
71764;BME280;59602;52.142;5.408;2023-04-05T22:48:19;102045.72;;;4.32;77.76
71764;BME280;59602;52.142;5.408;2023-04-05T22:51:35;102045.84;;;4.27;78.18